Terminal Aerodrome Forecast
Issued by NWS Bismarck, ND

Home | Current Version | Previous Version | Graphics & Text | Print | Product List | Glossary On
Versions: 1 2 3 4 5 6 7 8 9 10 11 12 13 14 15 16 17 18 19 20 21
000
FTUS43 KBIS 170306 AAA
TAFISN
TAF AMD
KISN 170306Z 1703/1724 35007KT P6SM BKN012
     FM171200 VRB05KT 2SM BR FEW015
     FM171400 20005KT P6SM SCT015
     FM171800 19008KT P6SM SCT200=

USA.gov is the U.S. government's official web portal to all federal, state and local government web resources and services.